Time;durP1;ratioP1;P1;durP2;ratioP2;P2;SDS_P1;SDS_P2;PMS_P1;PMS_P2;Temp;Humidity;BMP_temperature;BMP_pressure;BME280_temperature;BME280_humidity;BME280_pressure;Samples;Min_cycle;Max_cycle;Signal;HPM_P1;HPM_P2
2023/04/20 00:02:06;;;;;;;4.80;3.50;;;7.80;99.90;;;;;;4885350;28;87659;-32
2023/04/20 00:04:33;;;;;;;4.28;3.83;;;7.70;99.90;;;;;;4895906;28;90228;-35
2023/04/20 00:06:58;;;;;;;6.93;3.85;;;7.70;99.90;;;;;;4890511;28;89298;-32
2023/04/20 00:09:25;;;;;;;6.32;3.42;;;7.90;99.90;;;;;;4921886;23;90323;-36
2023/04/20 00:11:51;;;;;;;11.88;3.58;;;7.80;99.90;;;;;;4882394;28;90188;-37
2023/04/20 00:14:17;;;;;;;7.05;3.30;;;7.80;99.90;;;;;;4882782;28;90355;-33
2023/04/20 00:16:43;;;;;;;4.10;3.20;;;7.80;99.90;;;;;;4882636;28;90118;-34
2023/04/20 00:19:08;;;;;;;3.67;3.25;;;7.90;99.90;;;;;;4882548;28;89453;-35
2023/04/20 00:21:34;;;;;;;6.45;3.08;;;7.90;99.90;;;;;;4870976;28;89327;-35
2023/04/20 00:24:00;;;;;;;5.60;4.05;;;7.90;99.90;;;;;;4869507;28;90293;-33
2023/04/20 00:26:26;;;;;;;4.50;4.00;;;8.00;99.90;;;;;;4882472;28;88476;-32
2023/04/20 00:28:52;;;;;;;4.18;3.30;;;8.00;99.90;;;;;;4881438;28;89811;-36
2023/04/20 00:31:19;;;;;;;8.82;3.75;;;8.10;99.90;;;;;;4882977;28;87875;-33
2023/04/20 00:33:44;;;;;;;5.90;3.50;;;8.10;99.90;;;;;;4882246;28;91853;-33
2023/04/20 00:36:10;;;;;;;3.67;3.38;;;8.00;99.90;;;;;;4881999;28;89814;-32
2023/04/20 00:38:35;;;;;;;2.95;2.63;;;8.00;99.90;;;;;;4883213;28;89871;-36
2023/04/20 00:41:01;;;;;;;4.50;3.78;;;8.00;99.90;;;;;;4882542;28;89058;-35
2023/04/20 00:43:27;;;;;;;3.92;2.92;;;8.10;99.90;;;;;;4882571;28;91116;-35
2023/04/20 00:45:53;;;;;;;4.78;3.17;;;8.10;99.90;;;;;;4881079;28;90661;-33
2023/04/20 00:48:19;;;;;;;4.65;3.40;;;8.10;99.90;;;;;;4882300;28;90428;-32
2023/04/20 00:50:45;;;;;;;3.10;2.72;;;8.10;99.90;;;;;;4871191;28;89681;-31
2023/04/20 00:53:12;;;;;;;3.80;2.92;;;8.20;99.90;;;;;;4882135;28;90154;-32
2023/04/20 00:55:38;;;;;;;3.30;3.00;;;8.20;99.90;;;;;;4870387;28;90258;-33
2023/04/20 00:58:05;;;;;;;12.65;3.80;;;8.20;99.90;;;;;;4882148;28;90362;-32
2023/04/20 01:00:31;;;;;;;3.75;2.50;;;8.30;99.90;;;;;;4882142;28;89958;-32
2023/04/20 01:02:57;;;;;;;2.97;2.75;;;8.30;99.90;;;;;;4882016;28;90260;-33
2023/04/20 01:05:23;;;;;;;8.10;3.45;;;8.30;99.90;;;;;;4882620;28;90048;-35
2023/04/20 01:07:49;;;;;;;2.92;2.67;;;8.30;99.90;;;;;;4881075;28;89503;-32
2023/04/20 01:10:15;;;;;;;6.82;3.65;;;8.40;99.90;;;;;;4881895;28;90591;-34
2023/04/20 01:12:41;;;;;;;3.05;2.58;;;8.40;99.90;;;;;;4880922;28;90533;-36
2023/04/20 01:15:07;;;;;;;4.72;3.28;;;8.40;99.90;;;;;;4881920;28;89189;-34
2023/04/20 01:17:35;;;;;;;6.50;3.25;;;8.40;99.90;;;;;;4880795;28;90673;-32
2023/04/20 01:20:01;;;;;;;2.92;2.40;;;8.50;99.90;;;;;;4882108;28;89924;-32
2023/04/20 01:22:26;;;;;;;7.68;3.53;;;8.50;99.90;;;;;;4880862;28;90310;-37
2023/04/20 01:24:53;;;;;;;6.03;3.13;;;8.40;99.90;;;;;;4869471;28;89946;-32
2023/04/20 01:27:19;;;;;;;5.47;3.10;;;8.50;99.90;;;;;;4881823;28;89125;-34
2023/04/20 01:29:45;;;;;;;3.15;2.80;;;8.50;99.90;;;;;;4882578;28;89411;-34
2023/04/20 01:32:11;;;;;;;3.38;3.08;;;8.50;99.90;;;;;;4881167;28;90211;-35
2023/04/20 01:34:37;;;;;;;3.20;3.00;;;8.50;99.90;;;;;;4885802;28;90708;-33
2023/04/20 01:37:06;;;;;;;4.20;2.72;;;8.50;99.90;;;;;;4881146;28;89914;-36
2023/04/20 01:39:35;;;;;;;2.65;2.20;;;8.50;99.90;;;;;;4881883;28;89709;-32
2023/04/20 01:42:00;;;;;;;5.18;2.90;;;8.60;99.90;;;;;;4878409;28;91713;-33
2023/04/20 01:44:26;;;;;;;13.85;4.20;;;8.60;99.90;;;;;;4881847;28;89694;-32
2023/04/20 01:46:52;;;;;;;5.30;3.97;;;8.60;99.90;;;;;;4881083;28;89167;-33
2023/04/20 01:49:17;;;;;;;3.47;2.38;;;8.50;99.90;;;;;;4881214;28;91254;-32
2023/04/20 01:51:43;;;;;;;2.95;2.75;;;8.50;99.90;;;;;;4881351;28;89758;-33
2023/04/20 01:54:08;;;;;;;3.78;3.00;;;8.40;99.90;;;;;;4881462;28;91150;-33
2023/04/20 01:56:34;;;;;;;5.53;3.05;;;8.40;99.90;;;;;;4881336;28;89524;-32
2023/04/20 01:59:00;;;;;;;3.63;2.78;;;8.50;99.90;;;;;;4880546;28;88771;-31
2023/04/20 02:01:26;;;;;;;4.80;2.78;;;8.50;99.90;;;;;;4880378;28;89798;-32
2023/04/20 02:03:51;;;;;;;5.80;3.10;;;8.50;99.90;;;;;;4881426;28;89522;-37
2023/04/20 02:06:17;;;;;;;3.20;2.90;;;8.50;99.90;;;;;;4880804;28;88795;-31
2023/04/20 02:08:42;;;;;;;2.95;2.75;;;8.40;99.90;;;;;;4881662;28;89719;-36
2023/04/20 02:11:08;;;;;;;6.07;3.40;;;8.50;99.90;;;;;;4880577;28;90748;-33
2023/04/20 02:13:34;;;;;;;3.05;2.75;;;8.40;99.90;;;;;;4880929;28;89850;-35
2023/04/20 02:15:59;;;;;;;6.65;3.92;;;8.40;99.90;;;;;;4881100;28;89782;-35
2023/04/20 02:18:25;;;;;;;6.32;3.30;;;8.30;99.90;;;;;;4881646;28;89214;-31
2023/04/20 02:20:50;;;;;;;3.55;3.25;;;8.30;99.90;;;;;;4878959;28;91966;-31
2023/04/20 02:23:16;;;;;;;6.03;2.88;;;8.10;99.90;;;;;;4873301;28;89359;-33
2023/04/20 02:25:41;;;;;;;6.75;3.30;;;8.00;99.90;;;;;;4873842;28;90450;-37
2023/04/20 02:28:07;;;;;;;3.88;2.90;;;8.00;99.90;;;;;;4881529;28;88483;-35
2023/04/20 02:30:33;;;;;;;2.95;2.70;;;7.90;99.90;;;;;;4881219;28;89850;-37
2023/04/20 02:32:59;;;;;;;8.27;3.72;;;7.90;99.90;;;;;;4880743;28;89077;-32
2023/04/20 02:35:25;;;;;;;4.97;3.53;;;7.80;99.90;;;;;;4880477;28;89355;-35
2023/04/20 02:37:50;;;;;;;5.38;2.75;;;7.80;99.90;;;;;;4881013;28;88690;-32
2023/04/20 02:40:16;;;;;;;5.03;3.38;;;7.80;99.90;;;;;;4880837;28;90230;-33
2023/04/20 02:42:42;;;;;;;5.90;2.90;;;7.90;99.90;;;;;;4880335;28;89407;-37
2023/04/20 02:45:08;;;;;;;4.85;3.35;;;7.90;99.90;;;;;;4880609;28;88420;-33
2023/04/20 02:47:34;;;;;;;3.10;2.80;;;8.00;99.90;;;;;;4879888;28;89227;-36
2023/04/20 02:50:00;;;;;;;3.83;2.13;;;7.90;99.90;;;;;;4879156;28;90980;-33
2023/04/20 02:52:25;;;;;;;5.10;2.67;;;8.20;99.90;;;;;;4883559;28;89826;-32
2023/04/20 02:54:51;;;;;;;4.13;2.33;;;8.20;99.90;;;;;;4884390;28;88943;-32
2023/04/20 02:57:17;;;;;;;4.97;3.63;;;8.20;99.90;;;;;;4884034;28;90197;-33
2023/04/20 02:59:42;;;;;;;6.22;2.75;;;8.20;99.90;;;;;;4883098;28;90734;-33
2023/04/20 03:02:08;;;;;;;4.05;2.50;;;8.20;99.90;;;;;;4884034;28;89498;-31
2023/04/20 03:04:33;;;;;;;3.50;3.20;;;8.30;99.90;;;;;;4883660;28;89125;-34
2023/04/20 03:07:00;;;;;;;4.18;3.85;;;8.20;99.90;;;;;;4871420;28;89113;-34
2023/04/20 03:09:26;;;;;;;9.20;3.55;;;8.30;99.90;;;;;;4883425;28;90340;-35
2023/04/20 03:11:51;;;;;;;5.65;3.83;;;8.30;99.90;;;;;;4882829;28;90698;-34
2023/04/20 03:14:17;;;;;;;4.60;2.75;;;8.30;99.90;;;;;;4883499;28;88971;-33
2023/04/20 03:16:42;;;;;;;3.90;2.50;;;8.30;99.90;;;;;;4883794;28;88441;-35
2023/04/20 03:19:08;;;;;;;2.95;2.72;;;8.30;99.90;;;;;;4884370;28;90857;-31
2023/04/20 03:21:34;;;;;;;9.50;3.35;;;8.30;99.90;;;;;;4871021;28;89606;-31
2023/04/20 03:24:00;;;;;;;3.53;2.83;;;8.20;99.90;;;;;;4870594;28;89305;-31
2023/04/20 03:26:26;;;;;;;4.80;2.70;;;8.20;99.90;;;;;;4884082;28;88568;-33
2023/04/20 03:28:52;;;;;;;3.30;3.00;;;8.20;99.90;;;;;;4883365;28;90389;-37
2023/04/20 03:31:18;;;;;;;3.30;2.90;;;8.30;99.90;;;;;;4883098;28;90195;-33
2023/04/20 03:33:44;;;;;;;4.32;3.83;;;8.30;99.90;;;;;;4883405;28;90232;-33
2023/04/20 03:36:12;;;;;;;6.82;3.53;;;8.20;99.90;;;;;;4882484;28;90505;-36
2023/04/20 03:38:38;;;;;;;;;;;8.20;99.90;;;;;;4883431;28;88623;-33
2023/04/20 03:41:04;;;;;;;3.47;3.17;;;8.30;99.90;;;;;;4884425;28;90134;-35
2023/04/20 03:43:30;;;;;;;5.25;3.42;;;8.30;99.90;;;;;;4883197;28;90045;-31
2023/04/20 03:45:55;;;;;;;7.82;4.80;;;8.30;99.90;;;;;;4883910;28;89900;-32
2023/04/20 03:48:21;;;;;;;4.03;2.97;;;8.30;99.90;;;;;;4882030;28;90253;-33
2023/04/20 03:50:46;;;;;;;4.95;2.70;;;8.30;99.90;;;;;;4883309;28;90564;-31
2023/04/20 03:53:12;;;;;;;8.48;3.75;;;8.30;99.90;;;;;;4882936;28;89287;-32
2023/04/20 03:55:37;;;;;;;11.02;4.63;;;8.40;99.90;;;;;;4883647;28;88439;-33
2023/04/20 03:58:05;;;;;;;7.57;3.03;;;8.40;93.10;;;;;;4883169;28;90081;-31
2023/04/20 04:00:31;;;;;;;5.97;4.00;;;8.40;96.60;;;;;;4882353;28;90287;-36
2023/04/20 04:02:57;;;;;;;3.08;2.60;;;8.40;99.90;;;;;;4881257;28;90123;-33
2023/04/20 04:05:24;;;;;;;5.45;4.15;;;8.40;99.90;;;;;;4883739;28;88277;-31
2023/04/20 04:07:50;;;;;;;2.70;2.50;;;8.30;99.90;;;;;;4882013;28;90094;-35
2023/04/20 04:10:17;;;;;;;5.35;3.05;;;8.30;99.90;;;;;;4882878;28;90039;-37
2023/04/20 04:12:46;;;;;;;6.43;3.28;;;8.20;99.90;;;;;;4882585;28;89470;-36
2023/04/20 04:15:12;;;;;;;;;;;8.10;99.90;;;;;;4883911;28;88233;-35
2023/04/20 04:17:38;;;;;;;4.70;3.35;;;8.10;99.90;;;;;;4883839;28;90124;-32
2023/04/20 04:20:07;;;;;;;4.10;3.70;;;8.10;99.90;;;;;;4883470;28;89830;-35
2023/04/20 04:22:32;;;;;;;4.80;3.13;;;8.10;99.90;;;;;;4883000;28;89004;-34
2023/04/20 04:24:58;;;;;;;6.57;3.58;;;8.00;99.90;;;;;;4881834;28;89036;-33
2023/04/20 04:27:24;;;;;;;3.85;3.17;;;8.00;99.90;;;;;;4882388;28;90062;-33
2023/04/20 04:29:49;;;;;;;4.60;2.80;;;8.00;99.90;;;;;;4882546;28;89544;-31
2023/04/20 04:32:15;;;;;;;5.50;3.40;;;8.00;99.90;;;;;;4882290;28;89746;-32
2023/04/20 04:34:43;;;;;;;4.60;2.70;;;8.00;99.90;;;;;;4883181;28;89883;-31
2023/04/20 04:37:10;;;;;;;4.72;3.08;;;8.00;99.90;;;;;;4881501;28;91686;-33
2023/04/20 04:39:35;;;;;;;4.50;2.42;;;8.00;99.90;;;;;;4871008;28;90720;-35
2023/04/20 04:42:02;;;;;;;3.38;3.08;;;7.90;99.90;;;;;;4880601;28;89793;-35
2023/04/20 04:44:28;;;;;;;6.40;4.15;;;7.90;99.90;;;;;;4880438;28;89981;-33
2023/04/20 04:46:54;;;;;;;2.92;2.35;;;7.80;99.90;;;;;;4880532;28;90223;-34
2023/04/20 04:49:20;;;;;;;2.35;2.15;;;7.80;99.90;;;;;;4880893;28;90902;-35
2023/04/20 04:51:46;;;;;;;5.70;2.45;;;7.90;99.90;;;;;;4880039;28;90630;-32
2023/04/20 04:54:12;;;;;;;3.13;2.55;;;7.80;99.90;;;;;;4881938;28;90234;-32
2023/04/20 04:56:38;;;;;;;4.65;1.90;;;7.70;99.90;;;;;;4881465;28;90122;-30
2023/04/20 04:59:03;;;;;;;2.75;1.92;;;7.80;99.90;;;;;;4881649;28;89771;-34
2023/04/20 05:01:29;;;;;;;2.03;1.75;;;7.80;99.90;;;;;;4881522;28;90539;-31
2023/04/20 05:03:55;;;;;;;2.65;1.75;;;7.70;99.90;;;;;;4881800;28;89390;-33
2023/04/20 05:06:21;;;;;;;3.60;2.50;;;7.70;99.90;;;;;;4882428;28;90387;-35
2023/04/20 05:08:47;;;;;;;4.68;2.60;;;7.70;99.90;;;;;;4880960;28;89460;-35
2023/04/20 05:11:13;;;;;;;2.50;2.00;;;7.70;99.90;;;;;;4881518;28;89625;-37
2023/04/20 05:13:38;;;;;;;2.65;2.38;;;7.80;99.90;;;;;;4880699;28;90435;-31
2023/04/20 05:16:04;;;;;;;3.17;2.55;;;7.70;99.90;;;;;;4881075;28;90762;-33
2023/04/20 05:18:30;;;;;;;3.38;3.08;;;7.80;99.90;;;;;;4880897;28;89800;-31
2023/04/20 05:20:56;;;;;;;4.30;2.40;;;7.70;99.90;;;;;;4881113;28;89603;-34
2023/04/20 05:23:21;;;;;;;4.30;2.03;;;7.70;99.90;;;;;;4874012;28;89489;-34
2023/04/20 05:25:47;;;;;;;4.45;2.55;;;7.70;99.90;;;;;;4875993;28;88691;-32
2023/04/20 05:28:13;;;;;;;4.63;2.13;;;7.70;99.90;;;;;;4880846;28;90381;-33
2023/04/20 05:30:38;;;;;;;8.10;3.25;;;7.70;99.90;;;;;;4881837;28;89548;-36
2023/04/20 05:33:04;;;;;;;5.72;3.45;;;7.70;99.90;;;;;;4881409;28;89576;-34
2023/04/20 05:35:30;;;;;;;6.78;3.17;;;7.70;99.90;;;;;;4881926;28;89066;-32
2023/04/20 05:37:59;;;;;;;3.75;2.58;;;7.60;99.90;;;;;;4879750;28;92081;-35
2023/04/20 05:40:24;;;;;;;2.65;2.45;;;7.50;99.90;;;;;;4881535;28;90609;-31
2023/04/20 05:42:50;;;;;;;2.42;2.22;;;7.60;99.90;;;;;;4879509;28;89037;-35
2023/04/20 05:45:16;;;;;;;3.40;2.63;;;7.60;99.90;;;;;;4872644;28;90905;-34
2023/04/20 05:47:50;;;;;;;6.55;3.15;;;7.50;99.90;;;;;;4871167;28;89713;-33
2023/04/20 05:50:16;;;;;;;3.47;2.67;;;7.60;99.90;;;;;;4879637;28;89370;-34
2023/04/20 05:52:41;;;;;;;4.97;3.33;;;7.60;99.90;;;;;;4878684;28;90815;-31
2023/04/20 05:55:08;;;;;;;4.72;4.30;;;7.60;99.90;;;;;;4880003;28;90169;-33
2023/04/20 05:57:33;;;;;;;4.38;3.45;;;7.50;99.90;;;;;;4879307;28;90928;-32
2023/04/20 06:00:00;;;;;;;5.70;4.18;;;7.30;99.90;;;;;;4879185;28;89120;-32
2023/04/20 06:02:26;;;;;;;6.28;4.18;;;7.20;99.90;;;;;;4878856;28;89260;-36
2023/04/20 06:04:51;;;;;;;3.67;3.28;;;7.00;99.90;;;;;;4878764;28;90055;-36
2023/04/20 06:07:17;;;;;;;7.13;5.57;;;6.90;99.90;;;;;;4877771;28;89359;-32
2023/04/20 06:09:43;;;;;;;6.85;4.55;;;6.90;99.90;;;;;;4878707;28;88948;-33
2023/04/20 06:12:08;;;;;;;7.38;3.15;;;6.70;99.90;;;;;;4877656;28;88818;-32
2023/04/20 06:14:34;;;;;;;4.65;3.65;;;6.60;99.90;;;;;;4879811;28;90269;-33
2023/04/20 06:16:59;;;;;;;3.65;3.22;;;6.60;99.90;;;;;;4878535;28;89540;-32
2023/04/20 06:19:25;;;;;;;5.80;3.97;;;6.40;99.90;;;;;;4879882;28;89795;-36
2023/04/20 06:21:51;;;;;;;8.63;4.40;;;6.20;99.90;;;;;;4879231;28;89250;-33
2023/04/20 06:24:16;;;;;;;5.40;4.60;;;6.10;99.90;;;;;;4876887;28;90169;-33
2023/04/20 06:26:42;;;;;;;5.45;4.93;;;6.10;99.90;;;;;;4880394;28;91579;-33
2023/04/20 06:29:07;;;;;;;7.18;4.28;;;6.00;99.90;;;;;;4886167;28;90512;-35
2023/04/20 06:31:33;;;;;;;5.82;4.38;;;5.90;99.90;;;;;;4883261;28;88320;-32
2023/04/20 06:33:59;;;;;;;4.85;3.50;;;5.90;99.90;;;;;;4881606;28;90186;-33
2023/04/20 06:36:24;;;;;;;4.03;3.50;;;5.80;99.90;;;;;;4882803;28;89491;-35
2023/04/20 06:38:50;;;;;;;4.80;4.15;;;5.80;99.90;;;;;;4881457;28;89327;-36
2023/04/20 06:41:16;;;;;;;7.93;4.75;;;5.70;99.90;;;;;;4882633;28;90048;-33
2023/04/20 06:43:41;;;;;;;3.90;3.25;;;5.80;99.90;;;;;;4882471;28;89555;-31
2023/04/20 06:46:07;;;;;;;4.07;3.65;;;5.80;99.90;;;;;;4882206;28;89499;-34
2023/04/20 06:48:33;;;;;;;4.28;3.20;;;5.80;99.90;;;;;;4881766;28;89527;-31
2023/04/20 06:51:00;;;;;;;4.68;4.38;;;5.80;99.90;;;;;;4881315;28;89014;-31
2023/04/20 06:53:26;;;;;;;5.28;4.72;;;5.70;99.90;;;;;;4881976;28;88851;-36
2023/04/20 06:55:54;;;;;;;5.75;4.97;;;5.80;99.90;;;;;;4882411;28;89856;-36
2023/04/20 06:58:19;;;;;;;3.95;3.50;;;5.90;99.90;;;;;;4882114;28;89292;-34
2023/04/20 07:00:46;;;;;;;6.20;4.97;;;5.90;99.90;;;;;;4881729;28;89633;-36
2023/04/20 07:03:12;;;;;;;4.80;3.80;;;5.90;99.90;;;;;;4881952;28;89197;-32
2023/04/20 07:05:37;;;;;;;5.47;4.60;;;5.80;99.90;;;;;;4881788;28;90876;-35
2023/04/20 07:08:03;;;;;;;4.97;3.95;;;5.90;99.90;;;;;;4881978;28;88515;-37
2023/04/20 07:10:29;;;;;;;6.10;4.05;;;5.80;99.90;;;;;;4877638;28;89162;-32
2023/04/20 07:12:54;;;;;;;10.18;5.32;;;5.90;99.90;;;;;;4870072;28;89650;-38
2023/04/20 07:15:21;;;;;;;5.47;3.72;;;5.90;99.90;;;;;;4880782;28;89841;-33
2023/04/20 07:17:47;;;;;;;7.30;4.40;;;5.90;99.90;;;;;;4881117;28;90598;-36
2023/04/20 07:20:13;;;;;;;11.40;4.72;;;5.80;99.90;;;;;;4882234;28;89235;-33
2023/04/20 07:22:38;;;;;;;7.65;4.88;;;5.90;99.90;;;;;;4879257;28;89843;-32
2023/04/20 07:25:08;;;;;;;6.15;4.38;;;6.00;99.90;;;;;;4871149;28;90963;-33
2023/04/20 07:27:38;;;;;;;9.10;5.03;;;6.00;99.90;;;;;;4880853;28;89419;-34
2023/04/20 07:30:06;;;;;;;4.32;3.33;;;6.10;99.90;;;;;;4882092;28;89885;-37
2023/04/20 07:32:36;;;;;;;5.88;4.88;;;6.20;99.90;;;;;;4879819;28;90215;-36
2023/04/20 07:35:02;;;;;;;5.88;4.63;;;6.20;99.90;;;;;;4881227;28;89848;-34
2023/04/20 07:37:28;;;;;;;6.13;4.93;;;6.40;99.90;;;;;;4880958;28;89553;-36
2023/04/20 07:39:54;;;;;;;5.82;4.28;;;6.50;99.90;;;;;;4880471;28;89269;-33
2023/04/20 07:42:20;;;;;;;5.55;3.97;;;6.50;99.90;;;;;;4881576;28;89997;-37
2023/04/20 07:44:46;;;;;;;4.93;3.90;;;6.60;99.90;;;;;;4879492;28;89435;-32
2023/04/20 07:47:12;;;;;;;5.05;4.55;;;6.50;99.90;;;;;;4881410;28;89307;-33
2023/04/20 07:49:39;;;;;;;5.30;4.28;;;6.70;99.90;;;;;;4882460;28;88199;-33
2023/04/20 07:52:05;;;;;;;5.75;3.67;;;6.70;99.90;;;;;;4880304;28;90115;-33
2023/04/20 07:54:31;;;;;;;9.35;5.40;;;6.70;99.90;;;;;;4881062;28;89581;-35
2023/04/20 07:56:57;;;;;;;8.00;5.50;;;6.80;99.90;;;;;;4881435;28;89693;-32
2023/04/20 07:59:23;;;;;;;7.97;4.85;;;6.70;99.90;;;;;;4881604;28;88904;-33
2023/04/20 08:01:49;;;;;;;5.63;4.88;;;6.90;99.90;;;;;;4881437;28;90608;-32
2023/04/20 08:04:15;;;;;;;8.07;6.90;;;6.90;99.90;;;;;;4880347;28;90335;-33
2023/04/20 08:06:41;;;;;;;7.05;6.28;;;6.90;99.90;;;;;;4880388;28;89129;-34
2023/04/20 08:09:06;;;;;;;12.10;8.40;;;7.00;99.90;;;;;;4880940;28;89204;-32
2023/04/20 08:11:32;;;;;;;10.20;5.13;;;7.00;99.90;;;;;;4881016;28;90013;-31
2023/04/20 08:13:58;;;;;;;6.35;5.72;;;7.00;99.90;;;;;;4881297;28;89922;-33
2023/04/20 08:16:24;;;;;;;9.77;7.80;;;7.00;99.90;;;;;;4880363;28;90115;-34
2023/04/20 08:18:50;;;;;;;11.38;5.82;;;7.00;99.90;;;;;;4880640;28;89291;-36
2023/04/20 08:21:15;;;;;;;10.68;6.43;;;7.00;99.90;;;;;;4880688;28;90322;-35
2023/04/20 08:23:41;;;;;;;6.82;5.95;;;7.10;99.90;;;;;;4870744;28;88261;-34
2023/04/20 08:26:07;;;;;;;13.52;8.82;;;7.10;99.90;;;;;;4874966;28;89821;-30
2023/04/20 08:28:32;;;;;;;8.00;5.57;;;7.10;99.90;;;;;;4871387;28;89585;-33
2023/04/20 08:30:58;;;;;;;8.18;6.40;;;7.00;99.90;;;;;;4880575;28;90322;-36
2023/04/20 08:33:23;;;;;;;8.00;4.88;;;7.00;99.90;;;;;;4880758;28;89715;-34
2023/04/20 08:35:50;;;;;;;9.50;7.85;;;7.10;99.90;;;;;;4880657;28;89515;-35
2023/04/20 08:38:16;;;;;;;9.13;6.32;;;7.10;99.90;;;;;;4881018;28;89347;-33
2023/04/20 08:40:42;;;;;;;8.23;6.38;;;7.10;99.90;;;;;;4879666;28;90250;-33
2023/04/20 08:43:08;;;;;;;12.38;11.00;;;7.20;99.90;;;;;;4880852;28;89987;-32
2023/04/20 08:45:34;;;;;;;13.02;8.10;;;7.20;99.90;;;;;;4879959;28;89546;-31
2023/04/20 08:48:05;;;;;;;11.55;6.28;;;7.20;99.90;;;;;;4880155;28;89804;-36
2023/04/20 08:50:30;;;;;;;11.25;6.75;;;7.20;99.90;;;;;;4879893;28;92260;-32
2023/04/20 08:52:56;;;;;;;8.90;6.85;;;7.20;99.90;;;;;;4873795;28;91687;-33
2023/04/20 08:55:22;;;;;;;10.50;6.20;;;7.20;99.90;;;;;;4871358;28;90767;-34
2023/04/20 08:57:48;;;;;;;11.20;8.63;;;7.20;99.90;;;;;;4873450;28;88564;-33
2023/04/20 09:00:15;;;;;;;8.77;7.85;;;7.20;99.90;;;;;;4874031;28;89661;-31
2023/04/20 09:02:57;;;;;;;7.95;7.03;;;7.30;99.90;;;;;;4879234;28;90018;-33
2023/04/20 09:05:30;;;;;;;13.15;8.48;;;7.30;99.90;;;;;;4870201;28;89975;-32
2023/04/20 09:08:00;;;;;;;11.90;8.25;;;7.40;99.90;;;;;;4879806;28;88999;-35
2023/04/20 09:10:39;;;;;;;10.07;7.88;;;7.30;99.90;;;;;;4878375;28;90503;-31
2023/04/20 09:13:05;;;;;;;9.77;7.80;;;7.40;99.90;;;;;;4879990;28;89860;-37
2023/04/20 09:15:31;;;;;;;12.45;8.32;;;7.40;99.90;;;;;;4879642;28;89456;-30
2023/04/20 09:17:57;;;;;;;11.73;8.27;;;7.40;99.90;;;;;;4879168;28;89019;-30
2023/04/20 09:20:30;;;;;;;9.88;8.02;;;7.50;99.90;;;;;;4874991;28;89052;-33
2023/04/20 09:22:56;;;;;;;11.60;8.38;;;7.50;99.90;;;;;;4873523;28;89457;-33
2023/04/20 09:25:25;;;;;;;12.68;8.65;;;7.60;99.90;;;;;;4871845;28;89145;-32
2023/04/20 09:28:01;;;;;;;12.85;9.20;;;7.70;99.90;;;;;;4880304;28;89065;-33
2023/04/20 09:30:47;;;;;;;16.20;11.70;;;7.80;99.90;;;;;;4880233;28;90168;-32
2023/04/20 09:33:13;;;;;;;16.05;9.20;;;7.90;99.90;;;;;;4878953;28;90099;-37
2023/04/20 09:35:44;;;;;;;14.75;10.27;;;7.90;99.90;;;;;;4879971;28;89196;-34
2023/04/20 09:38:14;;;;;;;10.93;8.13;;;7.90;99.90;;;;;;4877906;28;89487;-35
2023/04/20 09:40:40;;;;;;;12.20;9.70;;;7.90;99.90;;;;;;4879321;28;90672;-35
2023/04/20 09:43:18;;;;;;;12.52;10.82;;;8.00;99.90;;;;;;4879345;28;90662;-31
2023/04/20 09:45:44;;;;;;;14.82;12.57;;;8.10;99.90;;;;;;4878745;28;90487;-36
2023/04/20 09:48:10;;;;;;;11.15;10.00;;;8.10;99.90;;;;;;4879050;28;89806;-33
2023/04/20 09:50:37;;;;;;;10.27;7.28;;;8.20;99.90;;;;;;4879220;28;90298;-37
2023/04/20 09:53:04;;;;;;;12.63;10.05;;;8.10;99.90;;;;;;4879668;28;89692;-33
2023/04/20 09:55:32;;;;;;;19.27;7.78;;;8.20;99.90;;;;;;4877144;28;89491;-31
2023/04/20 09:58:01;;;;;;;11.40;10.07;;;8.20;99.90;;;;;;4879296;28;89249;-36
2023/04/20 10:00:27;;;;;;;15.25;13.27;;;8.20;99.90;;;;;;4880722;28;90328;-33
2023/04/20 10:02:53;;;;;;;13.27;8.88;;;8.00;99.90;;;;;;4882927;28;89334;-32
2023/04/20 10:05:19;;;;;;;13.38;11.48;;;8.10;99.90;;;;;;4882348;28;90129;-34
2023/04/20 10:07:44;;;;;;;15.38;10.02;;;8.20;99.90;;;;;;4882053;28;90129;-34
2023/04/20 10:10:13;;;;;;;15.75;11.35;;;8.40;99.90;;;;;;4881342;28;90198;-35
2023/04/20 10:12:57;;;;;;;17.63;13.48;;;8.70;99.90;;;;;;4882164;28;89689;-32
2023/04/20 10:15:26;;;;;;;14.27;12.20;;;8.80;99.90;;;;;;4882799;28;89454;-33
2023/04/20 10:17:52;;;;;;;12.82;11.48;;;8.80;99.90;;;;;;4881941;28;88522;-35
2023/04/20 10:20:26;;;;;;;13.05;10.70;;;8.90;99.90;;;;;;4881470;28;89882;-33
2023/04/20 10:22:53;;;;;;;13.13;10.52;;;8.80;99.90;;;;;;4877970;28;89786;-35
2023/04/20 10:25:22;;;;;;;15.93;11.70;;;8.70;99.90;;;;;;4873760;28;90303;-33
2023/04/20 10:28:04;;;;;;;12.27;9.85;;;8.60;99.90;;;;;;4881642;28;89301;-34
2023/04/20 10:30:31;;;;;;;12.73;9.50;;;8.60;99.90;;;;;;4883153;28;89757;-32
2023/04/20 10:33:10;;;;;;;17.90;10.85;;;8.50;99.90;;;;;;4881726;28;90805;-32
2023/04/20 10:35:46;;;;;;;16.85;11.40;;;8.50;99.90;;;;;;4881568;28;91847;-33
2023/04/20 10:38:12;;;;;;;12.73;11.60;;;8.50;99.90;;;;;;4881800;28;89093;-35
2023/04/20 10:40:37;;;;;;;11.68;10.13;;;8.50;99.90;;;;;;4881614;28;90276;-34
2023/04/20 10:43:04;;;;;;;13.13;10.80;;;8.50;99.90;;;;;;4880962;28;90087;-34
2023/04/20 10:45:37;;;;;;;15.57;13.45;;;8.50;99.90;;;;;;4881662;28;88240;-31
2023/04/20 10:48:08;;;;;;;18.67;11.70;;;8.60;99.90;;;;;;4896167;28;88549;-32
2023/04/20 10:50:34;;;;;;;13.32;10.23;;;8.60;99.90;;;;;;4870266;28;92045;-32
2023/04/20 10:52:59;;;;;;;18.75;14.75;;;8.60;99.90;;;;;;4881101;28;90075;-31
2023/04/20 10:55:25;;;;;;;23.23;17.63;;;8.70;99.90;;;;;;4881304;28;89366;-34
2023/04/20 10:57:52;;;;;;;17.80;13.18;;;8.70;99.90;;;;;;4880295;28;89930;-31
2023/04/20 11:00:20;;;;;;;15.23;12.23;;;9.00;99.90;;;;;;4881069;28;89949;-31
2023/04/20 11:02:55;;;;;;;17.88;11.90;;;9.20;99.90;;;;;;4880607;28;90617;-33
2023/04/20 11:05:23;;;;;;;18.67;16.15;;;9.40;99.90;;;;;;4881455;28;90584;-34
2023/04/20 11:07:59;;;;;;;20.67;15.73;;;9.40;99.90;;;;;;4880447;28;89276;-32
2023/04/20 11:10:39;;;;;;;23.85;21.42;;;9.70;99.90;;;;;;4881444;28;89951;-32
2023/04/20 11:13:06;;;;;;;17.08;12.38;;;9.80;99.90;;;;;;4879891;28;88377;-35
2023/04/20 11:15:32;;;;;;;16.17;12.88;;;10.00;99.90;;;;;;4881679;28;89672;-35
2023/04/20 11:18:09;;;;;;;22.90;18.40;;;10.30;99.90;;;;;;4880425;28;87898;-32
2023/04/20 11:20:35;;;;;;;26.52;21.48;;;10.30;99.90;;;;;;4881114;28;90316;-33
2023/04/20 11:23:03;;;;;;;27.33;21.75;;;10.30;99.90;;;;;;4875342;28;91433;-31
2023/04/20 11:25:29;;;;;;;16.00;11.80;;;10.30;99.90;;;;;;4883605;28;90586;-32
2023/04/20 11:28:06;;;;;;;28.23;13.70;;;10.40;99.90;;;;;;4880778;28;88665;-35
2023/04/20 11:30:40;;;;;;;15.88;11.80;;;10.30;99.90;;;;;;4880498;28;90151;-36
2023/04/20 11:33:05;;;;;;;17.75;12.27;;;10.30;99.90;;;;;;4870888;28;89790;-33
2023/04/20 11:35:39;;;;;;;21.52;15.23;;;10.30;99.90;;;;;;4880801;28;89669;-33
2023/04/20 11:38:04;;;;;;;14.82;11.52;;;10.40;99.90;;;;;;4876912;28;88022;-32
2023/04/20 11:40:30;;;;;;;17.98;16.27;;;10.30;99.90;;;;;;4877339;28;90081;-32
2023/04/20 11:42:57;;;;;;;14.98;11.90;;;10.30;99.90;;;;;;4880947;28;88522;-31
2023/04/20 11:45:23;;;;;;;12.63;11.45;;;10.00;99.90;;;;;;4877766;28;89087;-32
2023/04/20 11:47:49;;;;;;;17.08;14.98;;;10.20;99.90;;;;;;4871227;28;90658;-32
2023/04/20 11:50:15;;;;;;;19.38;16.65;;;10.40;99.90;;;;;;4881304;28;91511;-32
2023/04/20 11:52:40;;;;;;;12.63;10.88;;;10.30;99.90;;;;;;4880118;28;89646;-33
2023/04/20 11:55:06;;;;;;;12.93;9.07;;;10.50;99.90;;;;;;4881220;28;89234;-35
2023/04/20 11:57:33;;;;;;;16.75;12.18;;;10.40;99.90;;;;;;4880821;28;88367;-35
2023/04/20 11:59:59;;;;;;;13.05;11.20;;;10.40;99.90;;;;;;4880287;28;90171;-32
2023/04/20 12:02:25;;;;;;;16.23;12.90;;;10.30;99.90;;;;;;4881207;28;89313;-32
2023/04/20 12:04:51;;;;;;;12.25;9.90;;;10.30;99.90;;;;;;4880246;28;89744;-33
2023/04/20 12:07:16;;;;;;;15.80;10.57;;;10.10;99.90;;;;;;4881442;28;89193;-34
2023/04/20 12:09:43;;;;;;;15.68;12.95;;;10.20;99.90;;;;;;4923894;23;90190;-34
2023/04/20 12:12:08;;;;;;;16.38;14.07;;;10.10;99.90;;;;;;4899101;28;90115;-37
2023/04/20 12:14:34;;;;;;;20.10;16.05;;;10.00;99.90;;;;;;4900042;28;91003;-33
2023/04/20 12:17:00;;;;;;;19.83;14.85;;;10.10;99.90;;;;;;4899068;28;89172;-33
2023/04/20 12:19:26;;;;;;;19.92;17.83;;;10.10;99.90;;;;;;4894004;28;90176;-33
2023/04/20 12:21:52;;;;;;;15.60;13.38;;;10.10;99.90;;;;;;4898086;28;89922;-34
2023/04/20 12:24:18;;;;;;;14.63;12.85;;;10.20;99.90;;;;;;4897957;28;89345;-36
2023/04/20 12:26:43;;;;;;;15.13;10.45;;;10.40;99.90;;;;;;4894914;28;89505;-34
2023/04/20 12:29:09;;;;;;;14.68;11.43;;;10.50;99.90;;;;;;4899429;28;91544;-31
2023/04/20 12:31:35;;;;;;;20.08;16.20;;;10.30;99.90;;;;;;4899572;28;89373;-33
2023/04/20 12:34:01;;;;;;;14.05;10.07;;;10.20;99.90;;;;;;4898183;28;89023;-35
2023/04/20 12:36:27;;;;;;;12.40;10.20;;;10.10;99.90;;;;;;4898854;28;88288;-32
2023/04/20 12:38:54;;;;;;;13.70;12.00;;;10.00;99.90;;;;;;4899592;28;90110;-31
2023/04/20 12:41:21;;;;;;;18.35;11.68;;;10.10;99.90;;;;;;4898832;28;88744;-35
2023/04/20 12:43:48;;;;;;;16.98;14.98;;;10.10;99.90;;;;;;4898294;28;89292;-33
2023/04/20 12:46:13;;;;;;;10.00;8.90;;;10.20;99.90;;;;;;4899439;28;90074;-31
2023/04/20 12:48:40;;;;;;;17.23;13.10;;;10.30;99.90;;;;;;4899507;28;90045;-34